Time;durP1;ratioP1;P1;durP2;ratioP2;P2;SDS_P1;SDS_P2;PMS_P1;PMS_P2;Temp;Humidity;BMP_temperature;BMP_pressure;BME280_temperature;BME280_humidity;BME280_pressure;Samples;Min_cycle;Max_cycle;Signal;HPM_P1;HPM_P2
2022/05/03 00:01:46;;;;;;;35.37;16.43;;;11.80;99.90;;;;;;5099569;28;20179;-64
2022/05/03 00:04:18;;;;;;;29.70;16.77;;;11.80;99.90;;;;;;5091085;28;20642;-64
2022/05/03 00:06:55;;;;;;;28.90;17.27;;;11.80;99.90;;;;;;5092278;28;20179;-65
2022/05/03 00:09:43;;;;;;;29.57;17.63;;;11.80;99.90;;;;;;5091619;28;20594;-65
2022/05/03 00:12:12;;;;;;;30.38;17.40;;;11.70;99.90;;;;;;5102041;28;20219;-65
2022/05/03 00:14:48;;;;;;;30.40;18.47;;;11.80;99.90;;;;;;5095757;28;20174;-66
2022/05/03 00:17:16;;;;;;;29.63;17.43;;;11.80;99.90;;;;;;5096002;28;20258;-69
2022/05/03 00:19:44;;;;;;;32.23;18.07;;;11.80;99.90;;;;;;5094054;28;20175;-65
2022/05/03 00:22:13;;;;;;;29.75;18.00;;;11.70;99.90;;;;;;5092540;28;20184;-64
2022/05/03 00:24:39;;;;;;;32.75;18.15;;;11.70;99.90;;;;;;5109234;28;20168;-65
2022/05/03 00:27:05;;;;;;;34.40;17.52;;;11.70;99.90;;;;;;5111974;28;20331;-65
2022/05/03 00:29:33;;;;;;;30.97;18.17;;;11.70;99.90;;;;;;5111345;28;20649;-65
2022/05/03 00:32:03;;;;;;;32.43;18.43;;;11.70;99.90;;;;;;5111742;28;20278;-65
2022/05/03 00:34:33;;;;;;;31.53;18.33;;;11.70;99.90;;;;;;5108281;28;20776;-65
2022/05/03 00:37:00;;;;;;;31.87;18.73;;;11.70;99.90;;;;;;5091792;28;20184;-65
2022/05/03 00:39:26;;;;;;;33.87;18.53;;;11.60;99.90;;;;;;5091665;28;20172;-65
2022/05/03 00:42:12;;;;;;;33.13;18.17;;;11.60;99.90;;;;;;5108209;28;20179;-65
2022/05/03 00:45:00;;;;;;;35.33;20.27;;;11.60;99.90;;;;;;5094786;28;20258;-64
2022/05/03 00:47:53;;;;;;;37.20;19.50;;;11.60;99.90;;;;;;5111146;28;20303;-65
2022/05/03 00:50:32;;;;;;;33.67;19.63;;;11.60;99.90;;;;;;5094987;28;20212;-65
2022/05/03 00:53:07;;;;;;;36.93;21.43;;;11.60;99.90;;;;;;5104023;28;20200;-65
2022/05/03 00:56:14;;;;;;;32.33;20.67;;;11.60;99.90;;;;;;5103455;28;20179;-64
2022/05/03 00:59:06;;;;;;;37.97;20.83;;;11.60;99.90;;;;;;5050096;28;20186;-64
2022/05/03 01:01:50;;;;;;;38.57;20.60;;;11.60;99.90;;;;;;5092562;28;20691;-63
2022/05/03 01:04:30;;;;;;;39.87;21.90;;;11.60;99.90;;;;;;5093954;28;20182;-64
2022/05/03 01:07:13;;;;;;;42.53;22.83;;;11.60;99.90;;;;;;5097694;28;20180;-64
2022/05/03 01:09:46;;;;;;;44.27;23.93;;;11.60;99.90;;;;;;5095000;28;20179;-64
2022/05/03 01:12:37;;;;;;;42.40;24.03;;;11.60;99.90;;;;;;5090171;28;20300;-64
2022/05/03 01:15:07;;;;;;;44.43;23.87;;;11.60;99.90;;;;;;5105400;28;20176;-64
2022/05/03 01:17:40;;;;;;;42.20;23.93;;;11.60;99.90;;;;;;5109431;28;20258;-64
2022/05/03 01:20:07;;;;;;;42.67;24.07;;;11.60;99.90;;;;;;5092771;28;20249;-65
2022/05/03 01:22:58;;;;;;;45.85;23.88;;;11.70;99.90;;;;;;5090303;28;20176;-64
2022/05/03 01:25:26;;;;;;;36.00;21.00;;;11.70;99.90;;;;;;5098196;28;20179;-64
2022/05/03 01:28:25;;;;;;;36.50;20.87;;;11.60;99.90;;;;;;5092754;28;20182;-64
2022/05/03 01:30:52;;;;;;;39.97;22.13;;;11.60;99.90;;;;;;5090289;28;20212;-65
2022/05/03 01:33:29;;;;;;;43.10;22.87;;;11.60;99.90;;;;;;5090429;28;20167;-65
2022/05/03 01:35:58;;;;;;;39.27;22.60;;;11.60;99.90;;;;;;5099839;28;20167;-67
2022/05/03 01:39:04;;;;;;;38.43;23.37;;;11.60;99.90;;;;;;5095763;28;20200;-64
2022/05/03 01:42:00;;;;;;;41.00;23.37;;;11.50;99.90;;;;;;5104461;28;20167;-64
2022/05/03 01:44:50;;;;;;;41.30;22.80;;;11.40;99.90;;;;;;5108173;28;20171;-64
2022/05/03 01:47:30;;;;;;;42.37;22.63;;;11.40;99.90;;;;;;5109624;28;20205;-67
2022/05/03 01:50:28;;;;;;;45.67;24.13;;;11.40;99.90;;;;;;5100440;28;20214;-64
2022/05/03 01:53:12;;;;;;;42.37;23.27;;;11.40;99.90;;;;;;5065031;28;20278;-65
2022/05/03 01:55:56;;;;;;;38.00;22.47;;;11.40;99.90;;;;;;5110059;28;20225;-64
2022/05/03 01:58:44;;;;;;;40.63;23.20;;;11.40;99.90;;;;;;5109854;28;20189;-65
2022/05/03 02:01:30;;;;;;;38.63;22.87;;;11.40;99.90;;;;;;5110697;28;20177;-66
2022/05/03 02:04:21;;;;;;;40.47;23.33;;;11.40;99.90;;;;;;5078807;28;20198;-66
2022/05/03 02:06:55;;;;;;;43.43;24.70;;;11.30;99.90;;;;;;5099161;28;20188;-66
2022/05/03 02:09:30;;;;;;;44.37;24.10;;;11.30;99.90;;;;;;5108947;28;20179;-65
2022/05/03 02:12:05;;;;;;;44.83;24.33;;;11.30;99.90;;;;;;5096019;28;20207;-65
2022/05/03 02:14:44;;;;;;;45.23;25.50;;;11.20;99.90;;;;;;5089943;28;20182;-66
2022/05/03 02:17:31;;;;;;;44.43;24.97;;;11.20;99.90;;;;;;5093803;28;20650;-64
2022/05/03 02:20:28;;;;;;;44.17;24.83;;;11.20;99.90;;;;;;5092543;28;20182;-65
2022/05/03 02:23:12;;;;;;;51.27;25.97;;;11.20;99.90;;;;;;5094248;28;20178;-63
2022/05/03 02:26:20;;;;;;;48.23;26.20;;;11.20;99.90;;;;;;5093893;28;20176;-63
2022/05/03 02:28:53;;;;;;;47.13;25.83;;;11.20;99.90;;;;;;5086913;28;20171;-63
2022/05/03 02:31:30;;;;;;;48.73;25.93;;;11.10;99.90;;;;;;5114603;28;20236;-64
2022/05/03 02:34:07;;;;;;;48.30;26.17;;;11.20;99.90;;;;;;5114331;28;20248;-63
2022/05/03 02:36:41;;;;;;;49.33;26.33;;;11.10;99.90;;;;;;5093262;28;20538;-63
2022/05/03 02:39:09;;;;;;;50.20;26.03;;;11.10;99.90;;;;;;5094477;28;20706;-64
2022/05/03 02:41:38;;;;;;;47.80;27.23;;;11.10;99.90;;;;;;5097676;28;20259;-64
2022/05/03 02:44:04;;;;;;;46.87;26.67;;;11.10;99.90;;;;;;5094456;28;20184;-64
2022/05/03 02:46:49;;;;;;;55.10;27.53;;;11.10;99.90;;;;;;5111936;28;20202;-64
2022/05/03 02:49:38;;;;;;;49.67;26.83;;;11.10;99.90;;;;;;5093188;28;20183;-64
2022/05/03 02:52:19;;;;;;;45.00;26.13;;;11.20;99.90;;;;;;5093147;28;20303;-64
2022/05/03 02:55:06;;;;;;;49.50;27.20;;;11.20;99.90;;;;;;5092016;28;20702;-64
2022/05/03 02:57:53;;;;;;;50.40;26.10;;;11.30;99.90;;;;;;5092595;28;20175;-64
2022/05/03 03:03:59;;;;;;;47.57;26.63;;;11.30;99.90;;;;;;5098309;28;20200;-64
2022/05/03 03:06:30;;;;;;;47.43;24.97;;;11.30;99.90;;;;;;5028932;28;20652;-64
2022/05/03 03:08:58;;;;;;;47.93;26.23;;;11.20;99.90;;;;;;5082533;28;20241;-64
2022/05/03 03:11:34;;;;;;;51.67;26.93;;;11.20;99.90;;;;;;5103891;28;20214;-64
2022/05/03 03:14:00;;;;;;;47.17;26.90;;;11.20;99.90;;;;;;5093611;28;20638;-64
2022/05/03 03:16:34;;;;;;;48.23;28.03;;;11.20;99.90;;;;;;5093285;28;20180;-65
2022/05/03 03:19:43;;;;;;;50.90;27.43;;;11.20;99.90;;;;;;5098246;28;20190;-65
2022/05/03 03:22:13;;;;;;;49.90;27.07;;;11.10;99.90;;;;;;5091471;28;20174;-65
2022/05/03 03:24:40;;;;;;;51.23;28.33;;;11.10;99.90;;;;;;5092290;28;20198;-65
2022/05/03 03:27:08;;;;;;;48.73;27.57;;;11.10;99.90;;;;;;5092007;28;20756;-65
2022/05/03 03:29:36;;;;;;;51.70;27.03;;;11.10;99.90;;;;;;5106262;28;20172;-67
2022/05/03 03:32:06;;;;;;;57.40;27.07;;;11.10;99.90;;;;;;5110499;28;20238;-66
2022/05/03 03:34:32;;;;;;;48.93;27.20;;;11.10;99.90;;;;;;5111526;28;20198;-66
2022/05/03 03:37:02;;;;;;;50.43;27.63;;;11.10;99.90;;;;;;5111320;28;20254;-67
2022/05/03 03:39:30;;;;;;;50.07;28.03;;;11.10;99.90;;;;;;5111766;28;20241;-65
2022/05/03 03:42:00;;;;;;;54.77;28.60;;;11.10;99.90;;;;;;5094408;28;20264;-65
2022/05/03 03:44:26;;;;;;;51.97;28.63;;;11.10;99.90;;;;;;5104390;28;20171;-65
2022/05/03 03:46:53;;;;;;;50.93;27.60;;;11.10;99.90;;;;;;5095574;28;20181;-68
2022/05/03 03:49:19;;;;;;;49.27;27.70;;;11.10;99.90;;;;;;5092383;28;20206;-62
2022/05/03 03:51:46;;;;;;;52.47;28.63;;;11.10;99.90;;;;;;5103233;28;20223;-67
2022/05/03 03:54:13;;;;;;;50.57;28.20;;;11.10;99.90;;;;;;5094177;28;20254;-67
2022/05/03 03:56:39;;;;;;;49.83;27.27;;;11.10;99.90;;;;;;5097737;28;20262;-67
2022/05/03 03:59:05;;;;;;;47.90;26.23;;;11.20;99.90;;;;;;5096885;28;20190;-66
2022/05/03 04:01:31;;;;;;;49.63;26.93;;;11.20;99.90;;;;;;5103400;28;20171;-67
2022/05/03 04:03:58;;;;;;;46.30;27.13;;;11.10;99.90;;;;;;5095326;28;20279;-67
2022/05/03 04:06:24;;;;;;;46.53;25.80;;;11.20;99.90;;;;;;5090931;28;20172;-67
2022/05/03 04:08:51;;;;;;;48.57;27.07;;;11.10;99.90;;;;;;5096739;28;20175;-68
2022/05/03 04:11:17;;;;;;;51.43;27.60;;;11.10;99.90;;;;;;5100002;28;20222;-67
2022/05/03 04:13:46;;;;;;;49.73;28.03;;;11.10;99.90;;;;;;5090566;28;20180;-66
2022/05/03 04:16:12;;;;;;;46.47;26.93;;;11.10;99.90;;;;;;5095530;28;20753;-66
2022/05/03 04:18:44;;;;;;;54.07;27.77;;;11.10;99.90;;;;;;5104389;28;20175;-65
2022/05/03 04:21:16;;;;;;;53.43;27.93;;;11.10;99.90;;;;;;5100720;27;20182;-65
2022/05/03 04:23:42;;;;;;;49.83;27.10;;;11.10;99.90;;;;;;5092029;28;20210;-66
2022/05/03 04:26:11;;;;;;;48.77;26.43;;;11.10;99.90;;;;;;5090261;28;20356;-66
2022/05/03 04:28:38;;;;;;;47.77;26.80;;;11.10;99.90;;;;;;5091063;28;20647;-66
2022/05/03 04:31:04;;;;;;;48.67;26.03;;;11.10;99.90;;;;;;5092417;28;20252;-66
2022/05/03 04:33:30;;;;;;;48.10;27.53;;;11.00;99.90;;;;;;5091298;28;20187;-66
2022/05/03 04:35:56;;;;;;;57.40;27.30;;;11.00;99.90;;;;;;5091677;28;20175;-66
2022/05/03 04:38:22;;;;;;;48.37;26.53;;;11.10;99.90;;;;;;5091317;28;20191;-66
2022/05/03 04:40:49;;;;;;;48.03;27.17;;;11.10;99.90;;;;;;5097245;28;20587;-66
2022/05/03 04:43:16;;;;;;;48.50;27.17;;;11.10;99.90;;;;;;5110118;28;20170;-66
2022/05/03 04:45:42;;;;;;;51.63;27.70;;;11.10;99.90;;;;;;5107802;28;20206;-66
2022/05/03 04:48:08;;;;;;;50.63;27.83;;;11.10;99.90;;;;;;5110908;28;20201;-66
2022/05/03 04:50:35;;;;;;;53.93;28.73;;;11.10;99.90;;;;;;5097851;28;20276;-63
2022/05/03 04:53:01;;;;;;;54.70;29.37;;;11.10;99.90;;;;;;5105504;28;20183;-63
2022/05/03 04:55:27;;;;;;;55.07;28.83;;;11.10;99.90;;;;;;5093077;28;20168;-63
2022/05/03 04:57:56;;;;;;;56.73;30.20;;;11.10;99.90;;;;;;5089420;28;20263;-64
2022/05/03 05:00:21;;;;;;;54.47;29.60;;;11.10;99.90;;;;;;5091374;28;20207;-63
2022/05/03 05:02:47;;;;;;;57.37;32.60;;;11.10;99.90;;;;;;5091071;28;20219;-63
2022/05/03 05:05:13;;;;;;;54.20;29.63;;;11.20;99.90;;;;;;5091402;28;20183;-63
2022/05/03 05:07:38;;;;;;;52.80;30.67;;;11.20;99.90;;;;;;5090760;28;20312;-63
2022/05/03 05:10:23;;;;;;;57.20;30.83;;;11.20;99.90;;;;;;5091574;28;20188;-63
2022/05/03 05:12:49;;;;;;;54.23;28.87;;;11.20;99.90;;;;;;5095149;28;20215;-64
2022/05/03 05:15:15;;;;;;;54.93;28.30;;;11.30;99.90;;;;;;5111562;28;20171;-64
2022/05/03 05:17:41;;;;;;;59.67;31.30;;;11.30;99.90;;;;;;5110006;28;20254;-65
2022/05/03 05:20:08;;;;;;;58.10;31.93;;;11.30;99.90;;;;;;5106962;28;20175;-65
2022/05/03 05:22:33;;;;;;;63.83;32.93;;;11.30;99.90;;;;;;5100383;28;20167;-65
2022/05/03 05:24:59;;;;;;;60.13;31.70;;;11.40;99.90;;;;;;5109136;28;20190;-70
2022/05/03 05:27:25;;;;;;;58.77;32.53;;;11.40;99.90;;;;;;5109919;28;20638;-62
2022/05/03 05:29:51;;;;;;;60.37;32.47;;;11.40;99.90;;;;;;5095329;28;20175;-66
2022/05/03 05:32:16;;;;;;;57.10;31.27;;;11.40;99.90;;;;;;5090674;28;20222;-66
2022/05/03 05:34:42;;;;;;;56.50;31.20;;;11.50;99.90;;;;;;5090454;28;20180;-66
2022/05/03 05:37:08;;;;;;;55.80;31.43;;;11.50;99.90;;;;;;5090562;28;20237;-66
2022/05/03 05:39:34;;;;;;;50.37;28.40;;;11.50;99.90;;;;;;5090581;28;20236;-66
2022/05/03 05:42:01;;;;;;;50.70;29.33;;;11.50;99.90;;;;;;5095493;28;20239;-66
2022/05/03 05:44:28;;;;;;;50.07;28.00;;;11.60;99.90;;;;;;5109244;28;20225;-66
2022/05/03 05:46:55;;;;;;;50.83;29.73;;;11.60;99.90;;;;;;5108220;28;20175;-66
2022/05/03 05:49:21;;;;;;;50.47;29.53;;;11.60;99.90;;;;;;5110371;28;20633;-66
2022/05/03 05:51:47;;;;;;;51.17;29.20;;;11.60;99.90;;;;;;5107377;28;20300;-66
2022/05/03 05:54:12;;;;;;;50.63;28.00;;;11.50;99.90;;;;;;5107598;28;20521;-66
2022/05/03 05:56:41;;;;;;;49.43;28.87;;;11.50;99.90;;;;;;5095651;28;20223;-66
2022/05/03 05:59:07;;;;;;;56.63;28.93;;;11.50;99.90;;;;;;5095151;28;20266;-66
2022/05/03 06:01:40;;;;;;;49.83;28.70;;;11.50;99.90;;;;;;5112235;28;20266;-66
2022/05/03 06:04:06;;;;;;;53.10;28.63;;;11.60;99.90;;;;;;5101328;28;20209;-66
2022/05/03 06:06:32;;;;;;;49.73;28.80;;;11.60;99.90;;;;;;5106692;28;20254;-66
2022/05/03 06:08:59;;;;;;;54.80;30.30;;;11.60;99.90;;;;;;5116877;27;20175;-66
2022/05/03 06:11:27;;;;;;;57.73;30.17;;;11.70;99.90;;;;;;5108749;27;20218;-66
2022/05/03 06:13:53;;;;;;;52.73;29.20;;;11.70;99.90;;;;;;5096250;28;20180;-67
2022/05/03 06:16:19;;;;;;;47.13;28.87;;;11.70;99.90;;;;;;5101410;28;20195;-66
2022/05/03 06:18:45;;;;;;;53.90;29.97;;;11.70;99.90;;;;;;5113287;28;20281;-66
2022/05/03 06:21:12;;;;;;;49.47;29.77;;;11.80;99.90;;;;;;5116707;27;20171;-65
2022/05/03 06:23:39;;;;;;;51.67;30.00;;;11.80;99.90;;;;;;5107930;27;20611;-66
2022/05/03 06:26:05;;;;;;;53.00;29.83;;;11.80;99.90;;;;;;5096241;28;20175;-66
2022/05/03 06:28:34;;;;;;;53.43;30.23;;;11.90;99.90;;;;;;5104577;28;20174;-66
2022/05/03 06:31:00;;;;;;;56.13;31.07;;;11.90;99.90;;;;;;5105212;28;20210;-66
2022/05/03 06:33:26;;;;;;;55.00;32.60;;;12.00;99.90;;;;;;5096960;28;20668;-66
2022/05/03 06:35:52;;;;;;;54.60;31.23;;;12.00;99.90;;;;;;5098817;28;20174;-67
2022/05/03 06:38:17;;;;;;;51.17;32.03;;;12.10;99.90;;;;;;5102546;27;20180;-68
2022/05/03 06:40:44;;;;;;;60.80;32.50;;;12.10;99.90;;;;;;5096544;28;20172;-70
2022/05/03 06:43:10;;;;;;;53.17;32.43;;;12.20;99.90;;;;;;5112365;28;20179;-70
2022/05/03 06:45:36;;;;;;;52.60;32.40;;;12.10;99.90;;;;;;5116254;27;20159;-68
2022/05/03 06:48:02;;;;;;;52.50;31.93;;;12.20;99.90;;;;;;5116345;27;20177;-68
2022/05/03 06:50:31;;;;;;;48.92;31.30;;;12.30;99.90;;;;;;5097801;27;20223;-69
2022/05/03 06:52:57;;;;;;;51.07;31.20;;;12.30;99.90;;;;;;5097202;28;20220;-69
2022/05/03 06:55:23;;;;;;;47.53;28.45;;;12.30;99.90;;;;;;5103149;28;20254;-69
2022/05/03 06:57:49;;;;;;;48.40;30.43;;;12.20;99.90;;;;;;5104592;27;20263;-68
2022/05/03 07:00:15;;;;;;;43.97;27.73;;;12.20;99.90;;;;;;5102721;28;20178;-59
2022/05/03 07:02:42;;;;;;;50.77;29.83;;;12.30;99.90;;;;;;5115735;27;20171;-72
2022/05/03 07:05:09;;;;;;;44.80;29.37;;;12.30;99.90;;;;;;5100422;28;20697;-76
2022/05/03 07:07:35;;;;;;;50.10;28.83;;;12.30;99.90;;;;;;5109530;28;20183;-65
2022/05/03 07:10:01;;;;;;;51.90;29.53;;;12.30;99.90;;;;;;5096273;28;20203;-63
2022/05/03 07:12:28;;;;;;;47.37;28.37;;;12.30;99.90;;;;;;5093470;28;20212;-62
2022/05/03 07:14:58;;;;;;;47.40;28.43;;;12.30;99.90;;;;;;5091940;28;20175;-63
2022/05/03 07:22:53;;;;;;;44.00;28.73;;;12.40;99.90;;;;;;5092595;28;20183;-63
2022/05/03 07:25:18;;;;;;;46.88;26.85;;;12.50;99.90;;;;;;5091824;28;20547;-63
2022/05/03 07:27:46;;;;;;;44.08;28.08;;;12.50;99.90;;;;;;5093230;28;20203;-63
2022/05/03 07:30:15;;;;;;;43.15;27.58;;;12.60;99.90;;;;;;5093112;28;20202;-63
2022/05/03 07:32:44;;;;;;;45.65;27.42;;;12.60;99.90;;;;;;5093162;28;20575;-62
2022/05/03 07:35:11;;;;;;;43.53;28.05;;;12.70;99.90;;;;;;5096086;28;20179;-61
2022/05/03 07:37:38;;;;;;;44.22;26.98;;;12.80;99.90;;;;;;5101116;28;20257;-61
2022/05/03 07:40:05;;;;;;;41.85;28.25;;;12.80;99.90;;;;;;5108562;28;20172;-63
2022/05/03 07:42:31;;;;;;;40.80;26.95;;;12.80;99.90;;;;;;5092303;28;20168;-62
2022/05/03 07:44:57;;;;;;;43.22;27.13;;;12.90;99.90;;;;;;5092852;28;20607;-63
2022/05/03 07:47:22;;;;;;;42.55;27.73;;;12.90;99.90;;;;;;5092827;28;20171;-63
2022/05/03 07:49:48;;;;;;;41.00;26.13;;;13.00;99.90;;;;;;5092715;28;20199;-63
2022/05/03 07:52:14;;;;;;;39.85;26.65;;;13.00;99.90;;;;;;5110291;28;20701;-56
2022/05/03 07:54:41;;;;;;;41.47;25.60;;;13.10;99.90;;;;;;5111165;28;20171;-63
2022/05/03 07:57:08;;;;;;;40.60;27.13;;;13.20;99.90;;;;;;5103283;28;20192;-60
2022/05/03 07:59:34;;;;;;;39.70;26.65;;;13.20;99.90;;;;;;5103606;28;20179;-62
2022/05/03 08:02:00;;;;;;;44.50;26.58;;;13.20;99.90;;;;;;5104571;28;20190;-60
2022/05/03 08:04:26;;;;;;;37.72;25.23;;;13.30;99.90;;;;;;5110635;28;20181;-65
2022/05/03 08:06:52;;;;;;;38.40;25.80;;;13.40;99.90;;;;;;5099136;28;20172;-61
2022/05/03 08:09:17;;;;;;;45.63;25.77;;;13.40;99.90;;;;;;5091624;28;20264;-61
2022/05/03 08:11:43;;;;;;;41.60;25.00;;;13.40;99.90;;;;;;5091215;28;20207;-62
2022/05/03 08:14:09;;;;;;;36.83;25.45;;;13.40;99.90;;;;;;5092108;28;20171;-66
2022/05/03 08:16:35;;;;;;;46.63;26.38;;;13.40;99.90;;;;;;5090879;28;20172;-66
2022/05/03 08:19:02;;;;;;;39.70;25.25;;;13.50;99.90;;;;;;5104072;28;20171;-62
2022/05/03 08:21:27;;;;;;;40.65;25.80;;;13.50;99.90;;;;;;5112660;28;20175;-63
2022/05/03 08:23:54;;;;;;;39.47;26.13;;;13.60;99.90;;;;;;5112561;28;20367;-62
2022/05/03 08:26:20;;;;;;;40.13;27.20;;;13.50;99.90;;;;;;5111751;28;20236;-64
2022/05/03 08:28:46;;;;;;;43.45;26.42;;;13.60;99.90;;;;;;5112559;28;20630;-64
2022/05/03 08:31:12;;;;;;;39.70;25.42;;;13.60;99.90;;;;;;5111200;28;20207;-68
2022/05/03 08:33:38;;;;;;;43.03;27.55;;;13.60;99.90;;;;;;5110373;28;20653;-73
2022/05/03 08:36:04;;;;;;;42.10;25.58;;;14.10;99.90;;;;;;5111684;28;20174;-77
2022/05/03 08:44:00;;;;;;;46.25;26.27;;;13.80;99.90;;;;;;5111959;28;20178;-74
2022/05/03 08:46:29;;;;;;;46.85;26.85;;;13.80;99.90;;;;;;5110913;28;20202;-75
2022/05/03 08:49:05;;;;;;;91.93;42.08;;;13.80;99.90;;;;;;5111160;28;20171;-76
2022/05/03 08:51:32;;;;;;;51.63;28.98;;;13.80;99.90;;;;;;5109340;28;20711;-76
2022/05/03 08:54:01;;;;;;;50.78;30.52;;;13.80;99.90;;;;;;5111757;28;20675;-75
2022/05/03 08:56:28;;;;;;;42.25;27.20;;;13.60;99.90;;;;;;5111535;28;20171;-75
2022/05/03 08:58:55;;;;;;;41.13;26.60;;;13.70;99.90;;;;;;5108947;28;20195;-75
2022/05/03 09:01:20;;;;;;;42.42;26.30;;;13.80;99.90;;;;;;5110703;28;20179;-75
2022/05/03 09:03:46;;;;;;;41.55;27.15;;;13.80;99.90;;;;;;5097360;28;20179;-74
2022/05/03 09:06:12;;;;;;;37.40;26.23;;;13.80;99.90;;;;;;5090455;28;20226;-75
2022/05/03 09:08:39;;;;;;;39.83;26.83;;;13.90;99.90;;;;;;5093336;28;20179;-74
2022/05/03 09:11:15;;;;;;;38.75;25.65;;;13.90;99.90;;;;;;5102651;28;20199;-75
2022/05/03 09:13:42;;;;;;;39.28;25.70;;;13.80;99.90;;;;;;5110491;28;20210;-76
2022/05/03 09:16:15;;;;;;;43.13;26.08;;;14.00;99.90;;;;;;5108629;28;20977;-74
2022/05/03 09:18:43;;;;;;;39.83;25.85;;;14.00;99.90;;;;;;5109517;28;20175;-74
2022/05/03 09:24:10;;;;;;;41.08;25.52;;;13.90;99.90;;;;;;5093037;28;20183;-74
2022/05/03 09:26:39;;;;;;;41.50;26.80;;;14.00;99.90;;;;;;5090230;28;20172;-74
2022/05/03 09:29:08;;;;;;;39.33;25.75;;;14.10;99.90;;;;;;5090304;28;20199;-74
2022/05/03 09:31:47;;;;;;;44.40;29.02;;;14.20;99.90;;;;;;5090456;28;20208;-74
2022/05/03 09:34:27;;;;;;;38.42;24.92;;;14.30;99.90;;;;;;5099172;28;20171;-73
2022/05/03 09:36:56;;;;;;;43.47;27.30;;;14.40;99.90;;;;;;5098693;28;20229;-73
2022/05/03 09:39:43;;;;;;;43.40;25.23;;;14.20;99.90;;;;;;5093460;28;20168;-72
2022/05/03 09:42:09;;;;;;;41.22;26.50;;;14.20;99.90;;;;;;5092785;28;20191;-73
2022/05/03 09:44:50;;;;;;;44.08;27.42;;;14.30;99.90;;;;;;5094275;28;20640;-73
2022/05/03 09:47:18;;;;;;;42.92;28.15;;;14.30;99.90;;;;;;5110473;28;20186;-74
2022/05/03 09:49:44;;;;;;;44.38;27.25;;;14.10;99.90;;;;;;5098014;28;20186;-73
2022/05/03 09:52:28;;;;;;;40.30;27.02;;;14.10;99.90;;;;;;5110757;28;20535;-75
2022/05/03 09:55:04;;;;;;;38.38;25.90;;;14.20;99.90;;;;;;5105794;28;20176;-73
2022/05/03 09:57:31;;;;;;;41.42;25.83;;;14.30;99.90;;;;;;5102579;28;20421;-73
2022/05/03 09:59:58;;;;;;;38.90;25.13;;;14.20;99.90;;;;;;5105150;28;20205;-73
2022/05/03 10:02:26;;;;;;;39.22;25.65;;;14.30;99.90;;;;;;5094983;28;20171;-73
2022/05/03 10:04:56;;;;;;;39.95;24.67;;;14.40;99.90;;;;;;5109630;28;20685;-73
2022/05/03 10:07:22;;;;;;;42.50;26.42;;;14.50;99.90;;;;;;5105451;28;20183;-73
2022/05/03 10:09:48;;;;;;;43.33;26.05;;;14.00;99.90;;;;;;5109536;28;20178;-73
2022/05/03 10:12:16;;;;;;;44.55;27.73;;;13.60;99.90;;;;;;5109535;28;20221;-73
2022/05/03 10:14:42;;;;;;;45.78;27.15;;;14.10;99.90;;;;;;5104515;28;20163;-73
2022/05/03 10:20:36;;;;;;;41.90;24.63;;;14.40;99.90;;;;;;5107242;28;20187;-73
2022/05/03 10:23:03;;;;;;;40.92;26.83;;;14.50;99.90;;;;;;5090481;28;20179;-73
2022/05/03 10:25:56;;;;;;;45.25;26.88;;;14.20;99.90;;;;;;5094415;28;20170;-73
2022/05/03 10:28:22;;;;;;;38.58;24.60;;;14.20;99.90;;;;;;5101690;28;20187;-73
2022/05/03 10:31:11;;;;;;;45.15;26.63;;;14.20;99.90;;;;;;5110522;28;20269;-73
2022/05/03 10:33:37;;;;;;;42.78;26.33;;;14.50;99.90;;;;;;5096381;28;20180;-74
2022/05/03 10:36:32;;;;;;;42.35;25.65;;;14.70;99.90;;;;;;5093743;28;20168;-73
2022/05/03 10:39:05;;;;;;;37.83;23.95;;;14.90;99.90;;;;;;5098149;28;20182;-72
2022/05/03 10:41:32;;;;;;;38.72;24.65;;;15.20;99.90;;;;;;5108107;28;20175;-73
2022/05/03 10:43:58;;;;;;;39.70;24.80;;;14.90;99.90;;;;;;5114861;28;20178;-75
2022/05/03 10:46:24;;;;;;;38.47;24.52;;;14.90;99.90;;;;;;5109213;28;20556;-73
2022/05/03 10:49:11;;;;;;;41.70;26.10;;;14.70;99.90;;;;;;5114595;27;20528;-74
2022/05/03 10:51:37;;;;;;;39.58;24.42;;;15.00;99.90;;;;;;5114090;28;20712;-74
2022/05/03 10:54:04;;;;;;;38.33;25.27;;;15.30;99.90;;;;;;5111831;28;20183;-73
2022/05/03 10:56:30;;;;;;;35.95;24.50;;;15.30;99.90;;;;;;5106615;28;20184;-72
2022/05/03 10:59:10;;;;;;;39.78;25.38;;;15.20;99.90;;;;;;5112625;28;20179;-72
2022/05/03 11:01:54;;;;;;;37.70;24.92;;;15.00;99.90;;;;;;5102558;28;20219;-72
2022/05/03 11:04:21;;;;;;;36.30;23.20;;;15.10;99.90;;;;;;5109787;28;20261;-72
2022/05/03 11:06:49;;;;;;;34.92;23.70;;;15.30;99.90;;;;;;5114038;28;20644;-71
2022/05/03 11:09:25;;;;;;;34.97;22.35;;;15.40;99.90;;;;;;5111975;28;20159;-72
2022/05/03 11:11:58;;;;;;;33.85;22.08;;;15.70;99.90;;;;;;5114079;28;20211;-59
2022/05/03 11:14:24;;;;;;;35.50;22.33;;;15.80;99.90;;;;;;5114042;27;20167;-60
2022/05/03 11:17:05;;;;;;;38.72;24.73;;;15.90;99.90;;;;;;5113979;28;20163;-60
2022/05/03 11:19:34;;;;;;;36.83;22.88;;;16.10;99.90;;;;;;5113809;28;20166;-60
2022/05/03 11:22:01;;;;;;;32.22;21.90;;;16.30;99.90;;;;;;5112423;28;20178;-60
2022/05/03 11:24:27;;;;;;;30.75;20.95;;;16.20;99.90;;;;;;5108775;28;20171;-60
2022/05/03 11:26:58;;;;;;;29.95;20.88;;;16.50;99.90;;;;;;5112660;28;20257;-61
2022/05/03 11:29:29;;;;;;;33.88;22.50;;;16.90;99.90;;;;;;5110602;28;20179;-60
2022/05/03 11:31:55;;;;;;;33.92;22.83;;;16.90;99.90;;;;;;5110249;28;20204;-60
2022/05/03 11:34:21;;;;;;;36.63;22.65;;;16.60;99.90;;;;;;5099681;28;20160;-60
2022/05/03 11:36:50;;;;;;;31.90;22.08;;;16.80;99.90;;;;;;5112721;28;20332;-60
2022/05/03 11:39:17;;;;;;;31.92;22.95;;;17.00;99.90;;;;;;5108298;28;20175;-60
2022/05/03 11:41:43;;;;;;;33.38;23.85;;;17.20;99.90;;;;;;5111818;28;20704;-60
2022/05/03 11:44:10;;;;;;;34.42;24.00;;;16.80;99.90;;;;;;5112197;28;20632;-60
2022/05/03 11:46:40;;;;;;;34.38;23.33;;;16.90;99.90;;;;;;5094376;28;20608;-60
2022/05/03 11:49:11;;;;;;;36.22;23.85;;;17.20;99.90;;;;;;5095250;28;20172;-60
2022/05/03 11:57:27;;;;;;;37.50;25.02;;;16.40;99.90;;;;;;5113268;28;20182;-60
2022/05/03 11:59:56;;;;;;;38.90;23.80;;;16.90;99.90;;;;;;5113236;28;20672;-60
2022/05/03 12:02:22;;;;;;;33.15;23.30;;;17.20;99.90;;;;;;5112071;28;20175;-60
2022/05/03 12:05:27;;;;;;;36.35;23.80;;;17.40;99.90;;;;;;5107826;28;20168;-60
2022/05/03 12:07:57;;;;;;;30.52;21.52;;;17.90;99.90;;;;;;5091481;28;20230;-60
2022/05/03 12:10:31;;;;;;;30.48;22.23;;;18.60;99.90;;;;;;5092021;28;20164;-60
2022/05/03 12:13:12;;;;;;;33.28;22.90;;;19.10;99.90;;;;;;5105515;27;20209;-60
2022/05/03 12:15:42;;;;;;;32.22;22.60;;;19.10;99.90;;;;;;5102724;28;20206;-60
2022/05/03 12:18:18;;;;;;;30.75;20.88;;;19.20;99.90;;;;;;5095958;28;20254;-59
2022/05/03 12:20:46;;;;;;;26.17;19.33;;;19.80;99.90;;;;;;5111219;28;20175;-58
2022/05/03 12:23:18;;;;;;;29.75;20.60;;;20.50;99.90;;;;;;5111122;28;20274;-56
2022/05/03 12:25:46;;;;;;;26.85;20.20;;;19.80;99.90;;;;;;5107372;28;20183;-57
2022/05/03 12:28:12;;;;;;;31.00;22.25;;;19.30;99.90;;;;;;5112100;28;20594;-57
2022/05/03 12:30:39;;;;;;;28.65;20.52;;;19.20;99.90;;;;;;5112046;27;20167;-57
2022/05/03 12:33:11;;;;;;;29.60;19.63;;;19.90;99.90;;;;;;5111398;28;20297;-57
2022/05/03 12:35:42;;;;;;;27.25;19.27;;;21.10;99.90;;;;;;5106366;28;20175;-58
2022/05/03 12:38:16;;;;;;;27.13;20.50;;;21.60;99.90;;;;;;5112286;28;20204;-57
2022/05/03 12:40:45;;;;;;;27.42;20.17;;;21.80;99.90;;;;;;5111647;28;20254;-57
2022/05/03 12:43:30;;;;;;;29.20;21.58;;;21.60;99.90;;;;;;5110890;28;20219;-57
2022/05/03 12:45:56;;;;;;;28.50;21.20;;;21.60;99.90;;;;;;5102580;28;20178;-57
2022/05/03 12:48:22;;;;;;;27.27;18.95;;;21.60;99.90;;;;;;5090922;28;20168;-58
2022/05/03 12:50:49;;;;;;;29.08;20.05;;;22.10;99.90;;;;;;5091032;28;20251;-57
2022/05/03 12:53:15;;;;;;;28.88;20.48;;;21.40;99.90;;;;;;5091628;28;20191;-57
2022/05/03 12:55:41;;;;;;;28.95;20.38;;;21.10;99.90;;;;;;5090922;28;20243;-58
2022/05/03 12:58:22;;;;;;;27.23;20.38;;;21.10;99.90;;;;;;5101911;28;20304;-58
2022/05/03 13:00:59;;;;;;;28.30;20.63;;;20.90;99.90;;;;;;5109384;28;20308;-58
2022/05/03 13:03:27;;;;;;;28.05;21.73;;;20.40;99.90;;;;;;5109862;28;20752;-58
2022/05/03 13:05:54;;;;;;;30.63;22.05;;;20.20;99.90;;;;;;5111042;28;20257;-58
2022/05/03 13:08:21;;;;;;;27.83;20.00;;;19.60;99.90;;;;;;5109818;28;20186;-58
2022/05/03 13:10:47;;;;;;;27.08;20.10;;;20.40;99.90;;;;;;5111701;28;20179;-59
2022/05/03 13:13:13;;;;;;;27.27;20.00;;;21.60;99.90;;;;;;5110192;28;20317;-58
2022/05/03 13:15:39;;;;;;;26.13;20.83;;;20.10;99.90;;;;;;5111403;28;20316;-58